Cp 276 — IGNR — position and weather

sailwx.info

Track history (hours):
 
Tides and Currents Weather Stations Pressure Air Temp Water Temp Dewpoint Dewpoint Depression Visibility Wind Speed Wind Dir Waves Ship Positions

Cp 276

Last reported at 2017-Aug-10 23:06 UTC. Time now 2017-Sep-25 22:44 UTC.
Position N 38°20' E 015°31'.
Warning: this ship's position is 45 days out of date.

Type: SAR. MMSI: 247020900.

Date/timePositionNaut miles runAvg speedWind from/ knotsBaromVisibWave heightAir tempDewpointWater temp
2017-Aug-10 23:06N 38°20' E 015°31'2 5.8
2017-Aug-10 22:48N 38°19' E 015°33'412.3
2017-Aug-10 22:30N 38°18' E 015°37'510.2
2017-Aug-10 22:00N 38°13' E 015°36'2 5.0
2017-Aug-10 21:31N 38°11' E 015°33'0 0.0
2017-Aug-10 21:01N 38°11' E 015°33'0 0.0
2017-Aug-10 20:31N 38°11' E 015°33'0 0.0
2017-Aug-10 20:00N 38°11' E 015°33'0 0.2
2017-Aug-10 19:31N 38°11' E 015°34'0 0.1
2017-Aug-10 19:01N 38°12' E 015°33'1 2.2
2017-Aug-10 18:30N 38°11' E 015°35'612.0
2017-Aug-10 18:00N 38°06' E 015°31'611.9
2017-Aug-10 17:30N 38°01' E 015°28'611.1
2017-Aug-10 16:56N 37°55' E 015°24'511.2
2017-Aug-10 16:30N 37°51' E 015°21'10 1.5
2017-Aug-10 10:04N 37°44' E 015°13'0 0.0
2017-Aug-10 09:55N 37°44' E 015°13'0 0.0
2017-Aug-10 07:17N 37°44' E 015°13'1 0.0
2017-Aug-09 15:29N 37°44' E 015°13'2 2.5
2017-Aug-09 14:34N 37°45' E 015°16'1 0.6
2017-Aug-09 13:24N 37°46' E 015°15'  
Track history (hours):
 
Tides and Currents Weather Stations Pressure Air Temp Water Temp Dewpoint Dewpoint Depression Visibility Wind Speed Wind Dir Waves Ship Positions

Cp 276

Last reported at 2017-Aug-10 23:06 UTC. Time now 2017-Sep-25 22:44 UTC.
Position N 38°20' E 015°31'.
Warning: this ship's position is 45 days out of date.

Type: SAR. MMSI: 247020900.

Date/timePositionNaut miles runAvg speedWind from/ knotsBaromVisibWave heightAir tempDewpointWater temp
2017-Aug-10 23:06N 38°20' E 015°31'2 5.8
2017-Aug-10 22:48N 38°19' E 015°33'412.3
2017-Aug-10 22:30N 38°18' E 015°37'510.2
2017-Aug-10 22:00N 38°13' E 015°36'2 5.0
2017-Aug-10 21:31N 38°11' E 015°33'0 0.0
2017-Aug-10 21:01N 38°11' E 015°33'0 0.0
2017-Aug-10 20:31N 38°11' E 015°33'0 0.0
2017-Aug-10 20:00N 38°11' E 015°33'0 0.2
2017-Aug-10 19:31N 38°11' E 015°34'0 0.1
2017-Aug-10 19:01N 38°12' E 015°33'1 2.2
2017-Aug-10 18:30N 38°11' E 015°35'612.0
2017-Aug-10 18:00N 38°06' E 015°31'611.9
2017-Aug-10 17:30N 38°01' E 015°28'611.1
2017-Aug-10 16:56N 37°55' E 015°24'511.2
2017-Aug-10 16:30N 37°51' E 015°21'10 1.5
2017-Aug-10 10:04N 37°44' E 015°13'0 0.0
2017-Aug-10 09:55N 37°44' E 015°13'0 0.0
2017-Aug-10 07:17N 37°44' E 015°13'1 0.0
2017-Aug-09 15:29N 37°44' E 015°13'2 2.5
2017-Aug-09 14:34N 37°45' E 015°16'1 0.6
2017-Aug-09 13:24N 37°46' E 015°15'  

Dump ship's entire track history